Terminal Aerodrome Forecast
Issued by NWS

Home | Current Version | Previous Version | Text Only | Print | Product List | Glossary Off
Versions: 1 2 3 4 5 6 7 8 9 10 11 12 13 14 15 16 17 18 19 20 21 22 23 24 25 26

000
FTUS43 KBIS 241000 AAA
TAFJMS
TAF AMD
KJMS 241040Z 2411/2506 16008KT P6SM VCSH OVC006
     FM241500 21008KT P6SM VCSH OVC015
     FM242000 23018KT P6SM SCT035 BKN050
     FM250500 24015KT P6SM SCT025 BKN060=

USA.gov is the U.S. government's official web portal to all federal, state and local government web resources and services.